Mc Knightstown, Pennsylvania
Current Conditions -  °F | °C
As of 12:53 AM on Wednesday 28 Jan 2015 (Local Time) from KRYT Reporting Station
Clear Clear  
Wind Chill: 12°   Ceiling: Unl
Heat Index: 20°   Visibility: 10mi
Dew Point:   Wind: 6mph
Humidity: 55%   Direction: NA
Pressure: 30"   Gusts: 16mph
Location:  39.8752°N, 77.3219°W
Report Text: KRYT 280553Z AUTO VRB05G14KT 10SM CLR M07/M14 A3000 RMK AO2 SLP181 T10671144 11033 21067 53037 $
Loading
Personal Weather Stations






























Interactive Weather Map New forecast layout! Learn more

10-Day Weather Forecast

Advertisements
Track Severe Weather on mobile